Etusivu
METAR-TAF:

METAR-TAF

Lentoasemat :

Corvallis, Oregon, Yhdysvallat

Leveyspiiri: 44-30N, Pituuspiiri: 123-17W, korkeus merenpinnasta: 75 m

Tämänhetkinen sää

Tämä raportti tehtiin 53 minuuttia sitten, kello 17.56 UTC
Tuuli 7 kn kaakosta
Lämpötila 14°C
Kosteus 67%
Ilmanpaine 1011 hPa
Näkyvyys: 16.1 km
Muutamia pilviä 1800 ft:n korkeudessa
Hajanaisia pilviä 2500 ft:n korkeudessa
Hajanaisia pilviä 3400 ft:n korkeudessa

METAR: KCVO 201756Z AUTO 13007KT 10SM FEW018 SCT025 SCT034 14/08 A2985 RMK AO2 SLP109 60000 T01390083 10139 20083 58010

Aika: 11:49 (18:49 UTC)


TAF: puuttuu

Säähavainnot ja -ennusteet yli 4000 lentoasemalta (METAR- ja TAF-raportit).

Käytössä olevat sääasemat on merkitty karttaan keltaisilla ja punaisilla pisteillä.

Aseta hiiri pisteen päälle nähdäksesi sääaseman nimen.

Klikkaa sitten nähdäksesi säähavainnot ja -ennusteet.

Kartan vaihtaminen: klikkaa mustalla rastilla varustettuja vihreitä pisteitä, niin voit zoomata sisään; viivalla varustettua vihreää pistettä, niin voit zoomata ulos tai vihreitä nuolia, niin pääset viereisille kartoille.


METAR-TAF: